Terminal Aerodrome Forecast
Issued by NWS Pocatello, ID

Home | Current Version | Previous Version | Text Only | Print | Product List | Glossary On
Versions: 1 2 3 4 5 6 7 8 9 10 11 12 13 14 15 16 17 18 19 20 21 22
378
FTUS45 KPIH 230532
TAFPIH
TAF
KPIH 230532Z 2306/2406 17011KT 4SM -SHSN BR SCT025 OVC040
      TEMPO 2307/2309 2SM -SN BR BKN025
     FM230900 VRB06KT P6SM VCSH SCT025 BKN035
     FM231500 VRB06KT 5SM -SHSN BR SCT010 OVC025
     FM231800 24012G22KT 1SM -SN BR SCT008 BKN015=

USA.gov is the U.S. government's official web portal to all federal, state and local government web resources and services.